Terminal Aerodrome Forecast
Issued by NWS St Louis, MO

Home | Current Version | Previous Version | Graphics & Text | Print | Product List | Glossary On
Versions: 1 2 3 4 5 6 7 8 9 10 11 12 13 14 15 16 17 18 19 20 21 22 23 24 25 26 27 28 29 30 31
000
FTUS43 KLSX 011500 AAA
TAFSTL
TAF AMD
KSTL 011507Z 0115/0218 18008KT 3SM -RA BR SCT006 OVC025
      TEMPO 0115/0119 2SM -RA BKN006 OVC020
     FM011900 27011KT 3SM -RA BR BKN007
     FM020200 32012G22KT 4SM -SN OVC007
     FM020600 34013G21KT P6SM SCT007 OVC012
     FM021400 32010KT P6SM BKN012=

USA.gov is the U.S. government's official web portal to all federal, state and local government web resources and services.